sensor_id;sensor_type;location;lat;lon;timestamp;temperature;humidity
16995;DHT22;8614;48.522;9.206;2024-03-06T00:01:05;6.60;99.90
16995;DHT22;8614;48.522;9.206;2024-03-06T00:03:32;6.60;99.90
16995;DHT22;8614;48.522;9.206;2024-03-06T00:05:59;6.60;99.90
16995;DHT22;8614;48.522;9.206;2024-03-06T00:08:26;6.60;99.90
16995;DHT22;8614;48.522;9.206;2024-03-06T00:10:53;6.50;99.90
16995;DHT22;8614;48.522;9.206;2024-03-06T00:13:20;6.50;99.90
16995;DHT22;8614;48.522;9.206;2024-03-06T00:15:47;6.50;99.90
16995;DHT22;8614;48.522;9.206;2024-03-06T00:18:15;6.50;99.90
16995;DHT22;8614;48.522;9.206;2024-03-06T00:20:42;6.50;99.90
16995;DHT22;8614;48.522;9.206;2024-03-06T00:23:10;6.50;99.90
16995;DHT22;8614;48.522;9.206;2024-03-06T00:25:37;6.50;99.90
16995;DHT22;8614;48.522;9.206;2024-03-06T00:28:04;6.50;99.90
16995;DHT22;8614;48.522;9.206;2024-03-06T00:30:31;6.50;99.90
16995;DHT22;8614;48.522;9.206;2024-03-06T00:32:58;6.50;99.90
16995;DHT22;8614;48.522;9.206;2024-03-06T00:35:27;6.40;99.90
16995;DHT22;8614;48.522;9.206;2024-03-06T00:37:55;6.40;99.90
16995;DHT22;8614;48.522;9.206;2024-03-06T00:40:21;6.30;99.90
16995;DHT22;8614;48.522;9.206;2024-03-06T00:42:49;6.40;99.90
16995;DHT22;8614;48.522;9.206;2024-03-06T00:45:16;6.30;99.90
16995;DHT22;8614;48.522;9.206;2024-03-06T00:47:42;6.30;99.90
16995;DHT22;8614;48.522;9.206;2024-03-06T00:50:09;6.30;99.90
16995;DHT22;8614;48.522;9.206;2024-03-06T00:52:37;6.30;99.90
16995;DHT22;8614;48.522;9.206;2024-03-06T00:55:05;6.30;99.90
16995;DHT22;8614;48.522;9.206;2024-03-06T00:57:32;6.30;99.90
16995;DHT22;8614;48.522;9.206;2024-03-06T00:59:59;6.30;99.90
16995;DHT22;8614;48.522;9.206;2024-03-06T01:02:26;6.30;99.90
16995;DHT22;8614;48.522;9.206;2024-03-06T01:04:53;6.30;99.90
16995;DHT22;8614;48.522;9.206;2024-03-06T01:07:21;6.30;99.90
16995;DHT22;8614;48.522;9.206;2024-03-06T01:09:49;6.30;99.90
16995;DHT22;8614;48.522;9.206;2024-03-06T01:12:16;6.30;99.90
16995;DHT22;8614;48.522;9.206;2024-03-06T01:14:44;6.20;99.90
16995;DHT22;8614;48.522;9.206;2024-03-06T01:17:10;6.20;99.90
16995;DHT22;8614;48.522;9.206;2024-03-06T01:19:37;6.20;99.90
16995;DHT22;8614;48.522;9.206;2024-03-06T01:22:04;6.20;99.90
16995;DHT22;8614;48.522;9.206;2024-03-06T01:24:31;6.20;99.90
16995;DHT22;8614;48.522;9.206;2024-03-06T01:26:59;6.10;99.90
16995;DHT22;8614;48.522;9.206;2024-03-06T01:29:28;6.10;99.90
16995;DHT22;8614;48.522;9.206;2024-03-06T01:31:55;6.10;99.90
16995;DHT22;8614;48.522;9.206;2024-03-06T01:34:22;6.10;99.90
16995;DHT22;8614;48.522;9.206;2024-03-06T01:36:48;6.10;99.90
16995;DHT22;8614;48.522;9.206;2024-03-06T01:39:15;6.10;99.90
16995;DHT22;8614;48.522;9.206;2024-03-06T01:41:45;6.10;99.90
16995;DHT22;8614;48.522;9.206;2024-03-06T01:44:13;6.10;99.90
16995;DHT22;8614;48.522;9.206;2024-03-06T01:46:40;6.10;99.90
16995;DHT22;8614;48.522;9.206;2024-03-06T01:49:07;6.10;99.90
16995;DHT22;8614;48.522;9.206;2024-03-06T01:51:35;6.10;99.90
16995;DHT22;8614;48.522;9.206;2024-03-06T01:54:03;6.10;99.90
16995;DHT22;8614;48.522;9.206;2024-03-06T01:56:32;6.20;99.90
16995;DHT22;8614;48.522;9.206;2024-03-06T01:59:00;6.20;99.90
16995;DHT22;8614;48.522;9.206;2024-03-06T02:01:31;6.20;99.90
16995;DHT22;8614;48.522;9.206;2024-03-06T02:03:59;6.20;99.90
16995;DHT22;8614;48.522;9.206;2024-03-06T02:06:26;6.30;99.90
16995;DHT22;8614;48.522;9.206;2024-03-06T02:08:53;6.20;99.90
16995;DHT22;8614;48.522;9.206;2024-03-06T02:11:19;6.20;99.90
16995;DHT22;8614;48.522;9.206;2024-03-06T02:13:47;6.20;99.90
16995;DHT22;8614;48.522;9.206;2024-03-06T02:16:15;6.20;99.90
16995;DHT22;8614;48.522;9.206;2024-03-06T02:18:52;6.30;99.90
16995;DHT22;8614;48.522;9.206;2024-03-06T02:21:21;6.30;99.90
16995;DHT22;8614;48.522;9.206;2024-03-06T02:23:48;6.20;99.90
16995;DHT22;8614;48.522;9.206;2024-03-06T02:26:16;6.20;99.90
16995;DHT22;8614;48.522;9.206;2024-03-06T02:28:47;6.20;99.90
16995;DHT22;8614;48.522;9.206;2024-03-06T02:31:14;6.10;99.90
16995;DHT22;8614;48.522;9.206;2024-03-06T02:33:41;6.10;99.90
16995;DHT22;8614;48.522;9.206;2024-03-06T02:36:08;6.10;99.90
16995;DHT22;8614;48.522;9.206;2024-03-06T02:38:36;6.10;99.90
16995;DHT22;8614;48.522;9.206;2024-03-06T02:41:03;6.00;99.90
16995;DHT22;8614;48.522;9.206;2024-03-06T02:43:32;6.00;99.90
16995;DHT22;8614;48.522;9.206;2024-03-06T02:45:59;6.00;99.90
16995;DHT22;8614;48.522;9.206;2024-03-06T02:48:26;6.00;99.90
16995;DHT22;8614;48.522;9.206;2024-03-06T02:50:53;6.00;99.90
16995;DHT22;8614;48.522;9.206;2024-03-06T02:53:20;6.00;99.90
16995;DHT22;8614;48.522;9.206;2024-03-06T02:55:48;6.00;99.90
16995;DHT22;8614;48.522;9.206;2024-03-06T02:58:15;5.90;99.90
16995;DHT22;8614;48.522;9.206;2024-03-06T03:00:42;6.00;99.90
16995;DHT22;8614;48.522;9.206;2024-03-06T03:03:08;6.00;99.90
16995;DHT22;8614;48.522;9.206;2024-03-06T03:05:37;6.00;99.90
16995;DHT22;8614;48.522;9.206;2024-03-06T03:08:05;5.90;99.90
16995;DHT22;8614;48.522;9.206;2024-03-06T03:10:32;5.90;99.90
16995;DHT22;8614;48.522;9.206;2024-03-06T03:13:01;5.90;99.90
16995;DHT22;8614;48.522;9.206;2024-03-06T03:15:30;5.90;99.90
16995;DHT22;8614;48.522;9.206;2024-03-06T03:17:58;5.90;99.90
16995;DHT22;8614;48.522;9.206;2024-03-06T03:20:25;6.00;99.90
16995;DHT22;8614;48.522;9.206;2024-03-06T03:22:52;5.90;99.90
16995;DHT22;8614;48.522;9.206;2024-03-06T03:25:18;6.00;99.90
16995;DHT22;8614;48.522;9.206;2024-03-06T03:27:47;5.90;99.90
16995;DHT22;8614;48.522;9.206;2024-03-06T03:30:16;5.90;99.90
16995;DHT22;8614;48.522;9.206;2024-03-06T03:32:46;5.90;99.90
16995;DHT22;8614;48.522;9.206;2024-03-06T03:35:13;5.90;99.90
16995;DHT22;8614;48.522;9.206;2024-03-06T03:37:39;5.90;99.90
16995;DHT22;8614;48.522;9.206;2024-03-06T03:40:07;5.90;99.90
16995;DHT22;8614;48.522;9.206;2024-03-06T03:42:37;5.90;99.90
16995;DHT22;8614;48.522;9.206;2024-03-06T03:45:04;5.90;99.90
16995;DHT22;8614;48.522;9.206;2024-03-06T03:47:32;5.90;99.90
16995;DHT22;8614;48.522;9.206;2024-03-06T03:49:58;5.90;99.90
16995;DHT22;8614;48.522;9.206;2024-03-06T03:52:25;5.90;99.90
16995;DHT22;8614;48.522;9.206;2024-03-06T03:54:52;6.00;99.90
16995;DHT22;8614;48.522;9.206;2024-03-06T03:57:19;6.00;99.90
16995;DHT22;8614;48.522;9.206;2024-03-06T03:59:46;6.00;99.90
16995;DHT22;8614;48.522;9.206;2024-03-06T04:02:12;6.00;99.90
16995;DHT22;8614;48.522;9.206;2024-03-06T04:04:41;6.00;99.90
16995;DHT22;8614;48.522;9.206;2024-03-06T04:07:08;6.00;99.90
16995;DHT22;8614;48.522;9.206;2024-03-06T04:09:34;6.00;99.90
16995;DHT22;8614;48.522;9.206;2024-03-06T04:12:02;6.00;99.90
16995;DHT22;8614;48.522;9.206;2024-03-06T04:14:29;6.10;99.90
16995;DHT22;8614;48.522;9.206;2024-03-06T04:16:56;6.00;99.90
16995;DHT22;8614;48.522;9.206;2024-03-06T04:19:22;6.00;99.90
16995;DHT22;8614;48.522;9.206;2024-03-06T04:21:50;6.00;99.90
16995;DHT22;8614;48.522;9.206;2024-03-06T04:24:17;6.00;99.90
16995;DHT22;8614;48.522;9.206;2024-03-06T04:26:45;6.00;99.90
16995;DHT22;8614;48.522;9.206;2024-03-06T04:29:12;6.00;99.90
16995;DHT22;8614;48.522;9.206;2024-03-06T04:31:38;6.00;99.90
16995;DHT22;8614;48.522;9.206;2024-03-06T04:34:05;6.00;99.90
16995;DHT22;8614;48.522;9.206;2024-03-06T04:36:32;6.00;99.90
16995;DHT22;8614;48.522;9.206;2024-03-06T04:39:00;6.00;99.90
16995;DHT22;8614;48.522;9.206;2024-03-06T04:41:27;6.00;99.90
16995;DHT22;8614;48.522;9.206;2024-03-06T04:43:54;6.00;99.90
16995;DHT22;8614;48.522;9.206;2024-03-06T04:46:23;5.90;99.90
16995;DHT22;8614;48.522;9.206;2024-03-06T04:48:50;5.90;99.90
16995;DHT22;8614;48.522;9.206;2024-03-06T04:51:17;6.00;99.90
16995;DHT22;8614;48.522;9.206;2024-03-06T04:53:45;6.00;99.90
16995;DHT22;8614;48.522;9.206;2024-03-06T04:56:15;6.10;99.90
16995;DHT22;8614;48.522;9.206;2024-03-06T04:58:44;6.00;99.90
16995;DHT22;8614;48.522;9.206;2024-03-06T05:01:11;6.00;99.90
16995;DHT22;8614;48.522;9.206;2024-03-06T05:03:38;6.00;99.90
16995;DHT22;8614;48.522;9.206;2024-03-06T05:06:05;6.00;99.90
16995;DHT22;8614;48.522;9.206;2024-03-06T05:08:32;6.00;99.90
16995;DHT22;8614;48.522;9.206;2024-03-06T05:11:00;6.00;99.90
16995;DHT22;8614;48.522;9.206;2024-03-06T05:13:29;6.00;99.90
16995;DHT22;8614;48.522;9.206;2024-03-06T05:15:55;6.00;99.90
16995;DHT22;8614;48.522;9.206;2024-03-06T05:18:22;6.00;99.90
16995;DHT22;8614;48.522;9.206;2024-03-06T05:20:49;6.00;99.90
16995;DHT22;8614;48.522;9.206;2024-03-06T05:23:16;6.00;99.90
16995;DHT22;8614;48.522;9.206;2024-03-06T05:25:43;6.00;99.90
16995;DHT22;8614;48.522;9.206;2024-03-06T05:28:10;6.00;99.90
16995;DHT22;8614;48.522;9.206;2024-03-06T05:30:38;6.00;99.90
16995;DHT22;8614;48.522;9.206;2024-03-06T05:33:05;6.00;99.90
16995;DHT22;8614;48.522;9.206;2024-03-06T05:35:31;5.90;99.90
16995;DHT22;8614;48.522;9.206;2024-03-06T05:37:58;5.90;99.90
16995;DHT22;8614;48.522;9.206;2024-03-06T05:40:25;5.90;99.90
16995;DHT22;8614;48.522;9.206;2024-03-06T05:42:52;5.90;99.90
16995;DHT22;8614;48.522;9.206;2024-03-06T05:45:19;5.90;99.90
16995;DHT22;8614;48.522;9.206;2024-03-06T05:47:47;5.90;99.90
16995;DHT22;8614;48.522;9.206;2024-03-06T05:50:14;5.90;99.90
16995;DHT22;8614;48.522;9.206;2024-03-06T05:52:41;5.90;99.90
16995;DHT22;8614;48.522;9.206;2024-03-06T05:55:08;5.90;99.90
16995;DHT22;8614;48.522;9.206;2024-03-06T05:57:35;5.90;99.90
16995;DHT22;8614;48.522;9.206;2024-03-06T06:00:02;5.90;99.90
16995;DHT22;8614;48.522;9.206;2024-03-06T06:02:37;5.90;99.90
16995;DHT22;8614;48.522;9.206;2024-03-06T06:05:06;5.90;99.90
16995;DHT22;8614;48.522;9.206;2024-03-06T06:07:33;5.90;99.90
16995;DHT22;8614;48.522;9.206;2024-03-06T06:10:00;5.90;99.90
16995;DHT22;8614;48.522;9.206;2024-03-06T06:12:27;5.90;99.90
16995;DHT22;8614;48.522;9.206;2024-03-06T06:14:54;5.90;99.90
16995;DHT22;8614;48.522;9.206;2024-03-06T06:17:20;5.90;99.90
16995;DHT22;8614;48.522;9.206;2024-03-06T06:19:48;5.90;99.90
16995;DHT22;8614;48.522;9.206;2024-03-06T06:22:16;6.00;99.90
16995;DHT22;8614;48.522;9.206;2024-03-06T06:24:43;5.90;99.90
16995;DHT22;8614;48.522;9.206;2024-03-06T06:27:11;5.90;99.90
16995;DHT22;8614;48.522;9.206;2024-03-06T06:29:38;6.00;99.90
16995;DHT22;8614;48.522;9.206;2024-03-06T06:32:04;6.00;99.90
16995;DHT22;8614;48.522;9.206;2024-03-06T06:34:31;6.00;99.90
16995;DHT22;8614;48.522;9.206;2024-03-06T06:36:58;6.00;99.90
16995;DHT22;8614;48.522;9.206;2024-03-06T06:39:26;6.00;99.90
16995;DHT22;8614;48.522;9.206;2024-03-06T06:41:53;6.00;99.90
16995;DHT22;8614;48.522;9.206;2024-03-06T06:44:20;6.00;99.90
16995;DHT22;8614;48.522;9.206;2024-03-06T06:46:47;6.10;99.90
16995;DHT22;8614;48.522;9.206;2024-03-06T06:49:13;6.10;99.90
16995;DHT22;8614;48.522;9.206;2024-03-06T06:51:40;6.10;99.90
16995;DHT22;8614;48.522;9.206;2024-03-06T06:54:07;6.10;99.90
16995;DHT22;8614;48.522;9.206;2024-03-06T06:56:35;6.10;99.90
16995;DHT22;8614;48.522;9.206;2024-03-06T06:59:02;6.10;99.90
16995;DHT22;8614;48.522;9.206;2024-03-06T07:01:29;6.20;99.90
16995;DHT22;8614;48.522;9.206;2024-03-06T07:03:56;6.10;99.90
16995;DHT22;8614;48.522;9.206;2024-03-06T07:06:23;6.10;99.90
16995;DHT22;8614;48.522;9.206;2024-03-06T07:08:50;6.10;99.90
16995;DHT22;8614;48.522;9.206;2024-03-06T07:11:17;6.10;99.90
16995;DHT22;8614;48.522;9.206;2024-03-06T07:13:45;6.10;99.90
16995;DHT22;8614;48.522;9.206;2024-03-06T07:16:12;6.10;99.90
16995;DHT22;8614;48.522;9.206;2024-03-06T07:18:40;6.20;99.90
16995;DHT22;8614;48.522;9.206;2024-03-06T07:21:07;6.20;99.90
16995;DHT22;8614;48.522;9.206;2024-03-06T07:23:34;6.20;99.90
16995;DHT22;8614;48.522;9.206;2024-03-06T07:26:00;6.10;99.90
16995;DHT22;8614;48.522;9.206;2024-03-06T07:28:27;6.20;99.90
16995;DHT22;8614;48.522;9.206;2024-03-06T07:30:55;6.20;99.90
16995;DHT22;8614;48.522;9.206;2024-03-06T07:33:22;6.10;99.90
16995;DHT22;8614;48.522;9.206;2024-03-06T07:35:49;6.20;99.90
16995;DHT22;8614;48.522;9.206;2024-03-06T07:38:15;6.10;99.90
16995;DHT22;8614;48.522;9.206;2024-03-06T07:40:42;6.20;99.90
16995;DHT22;8614;48.522;9.206;2024-03-06T07:43:09;6.20;99.90
16995;DHT22;8614;48.522;9.206;2024-03-06T07:45:36;6.30;99.90
16995;DHT22;8614;48.522;9.206;2024-03-06T07:48:05;6.30;99.90
16995;DHT22;8614;48.522;9.206;2024-03-06T07:50:33;6.30;99.90
16995;DHT22;8614;48.522;9.206;2024-03-06T07:53:00;6.40;99.90
16995;DHT22;8614;48.522;9.206;2024-03-06T07:55:28;6.40;99.90
16995;DHT22;8614;48.522;9.206;2024-03-06T07:57:54;6.50;99.90
16995;DHT22;8614;48.522;9.206;2024-03-06T08:00:22;6.60;99.90
16995;DHT22;8614;48.522;9.206;2024-03-06T08:02:50;6.60;99.90
16995;DHT22;8614;48.522;9.206;2024-03-06T08:05:18;6.70;99.90
16995;DHT22;8614;48.522;9.206;2024-03-06T08:07:46;6.80;99.90
16995;DHT22;8614;48.522;9.206;2024-03-06T08:10:13;6.80;99.90
16995;DHT22;8614;48.522;9.206;2024-03-06T08:12:43;6.90;99.90
16995;DHT22;8614;48.522;9.206;2024-03-06T08:15:13;6.90;99.90
16995;DHT22;8614;48.522;9.206;2024-03-06T08:17:41;6.80;99.90
16995;DHT22;8614;48.522;9.206;2024-03-06T08:20:09;6.80;99.90
16995;DHT22;8614;48.522;9.206;2024-03-06T08:22:39;6.80;99.90
16995;DHT22;8614;48.522;9.206;2024-03-06T08:25:07;6.80;99.90
16995;DHT22;8614;48.522;9.206;2024-03-06T08:27:35;6.80;99.90
16995;DHT22;8614;48.522;9.206;2024-03-06T08:30:02;6.80;99.90
16995;DHT22;8614;48.522;9.206;2024-03-06T08:32:30;6.90;99.90
16995;DHT22;8614;48.522;9.206;2024-03-06T08:34:57;7.00;99.90
16995;DHT22;8614;48.522;9.206;2024-03-06T08:37:24;7.00;99.90
16995;DHT22;8614;48.522;9.206;2024-03-06T08:39:52;7.10;99.90
16995;DHT22;8614;48.522;9.206;2024-03-06T08:42:19;7.10;99.90
16995;DHT22;8614;48.522;9.206;2024-03-06T08:44:46;7.10;99.90
16995;DHT22;8614;48.522;9.206;2024-03-06T08:47:12;7.20;99.90
16995;DHT22;8614;48.522;9.206;2024-03-06T08:49:39;7.20;99.90
16995;DHT22;8614;48.522;9.206;2024-03-06T08:52:06;7.10;99.90
16995;DHT22;8614;48.522;9.206;2024-03-06T08:54:35;7.10;99.90
16995;DHT22;8614;48.522;9.206;2024-03-06T08:57:04;7.10;99.90
16995;DHT22;8614;48.522;9.206;2024-03-06T08:59:31;7.10;99.90
16995;DHT22;8614;48.522;9.206;2024-03-06T09:01:57;7.10;99.90
16995;DHT22;8614;48.522;9.206;2024-03-06T09:04:26;7.20;99.90
16995;DHT22;8614;48.522;9.206;2024-03-06T09:06:52;7.20;99.90
16995;DHT22;8614;48.522;9.206;2024-03-06T09:09:20;7.20;99.90
16995;DHT22;8614;48.522;9.206;2024-03-06T09:11:47;7.20;99.90
16995;DHT22;8614;48.522;9.206;2024-03-06T09:14:15;7.20;99.90
16995;DHT22;8614;48.522;9.206;2024-03-06T09:16:42;7.20;99.90
16995;DHT22;8614;48.522;9.206;2024-03-06T09:19:08;7.30;99.90
16995;DHT22;8614;48.522;9.206;2024-03-06T09:21:35;7.30;99.90
16995;DHT22;8614;48.522;9.206;2024-03-06T09:24:02;7.30;99.90
16995;DHT22;8614;48.522;9.206;2024-03-06T09:26:29;7.30;99.90
16995;DHT22;8614;48.522;9.206;2024-03-06T09:28:56;7.40;99.90
16995;DHT22;8614;48.522;9.206;2024-03-06T09:31:24;7.40;99.90
16995;DHT22;8614;48.522;9.206;2024-03-06T09:33:53;7.40;99.90
16995;DHT22;8614;48.522;9.206;2024-03-06T09:36:20;7.40;99.90
16995;DHT22;8614;48.522;9.206;2024-03-06T09:38:46;7.40;99.90
16995;DHT22;8614;48.522;9.206;2024-03-06T09:41:13;7.40;99.90
16995;DHT22;8614;48.522;9.206;2024-03-06T09:43:40;7.50;99.90
16995;DHT22;8614;48.522;9.206;2024-03-06T09:46:07;7.50;99.90
16995;DHT22;8614;48.522;9.206;2024-03-06T09:48:36;7.50;99.90
16995;DHT22;8614;48.522;9.206;2024-03-06T09:51:07;7.50;99.90
16995;DHT22;8614;48.522;9.206;2024-03-06T09:53:34;7.40;99.90
16995;DHT22;8614;48.522;9.206;2024-03-06T09:56:02;7.40;99.90
16995;DHT22;8614;48.522;9.206;2024-03-06T09:58:31;7.40;99.90
16995;DHT22;8614;48.522;9.206;2024-03-06T10:00:58;7.40;99.90
16995;DHT22;8614;48.522;9.206;2024-03-06T10:03:26;7.50;99.90
16995;DHT22;8614;48.522;9.206;2024-03-06T10:05:55;7.50;99.90
16995;DHT22;8614;48.522;9.206;2024-03-06T10:08:22;7.50;99.90
16995;DHT22;8614;48.522;9.206;2024-03-06T10:10:52;7.50;99.90
16995;DHT22;8614;48.522;9.206;2024-03-06T10:13:23;7.50;99.90
16995;DHT22;8614;48.522;9.206;2024-03-06T10:15:56;7.50;99.90
16995;DHT22;8614;48.522;9.206;2024-03-06T10:18:26;7.50;99.90
16995;DHT22;8614;48.522;9.206;2024-03-06T10:20:55;7.50;99.90
16995;DHT22;8614;48.522;9.206;2024-03-06T10:23:22;7.50;99.90
16995;DHT22;8614;48.522;9.206;2024-03-06T10:25:50;7.40;99.90
16995;DHT22;8614;48.522;9.206;2024-03-06T10:28:18;7.40;99.90
16995;DHT22;8614;48.522;9.206;2024-03-06T10:30:45;7.40;99.90
16995;DHT22;8614;48.522;9.206;2024-03-06T10:33:13;7.40;99.90
16995;DHT22;8614;48.522;9.206;2024-03-06T10:35:42;7.40;99.90
16995;DHT22;8614;48.522;9.206;2024-03-06T10:38:11;7.40;99.90
16995;DHT22;8614;48.522;9.206;2024-03-06T10:40:39;7.50;99.90
16995;DHT22;8614;48.522;9.206;2024-03-06T10:43:07;7.50;99.90
16995;DHT22;8614;48.522;9.206;2024-03-06T10:45:40;7.60;99.90
16995;DHT22;8614;48.522;9.206;2024-03-06T10:48:08;7.70;99.90
16995;DHT22;8614;48.522;9.206;2024-03-06T10:50:38;7.70;99.90
16995;DHT22;8614;48.522;9.206;2024-03-06T10:53:09;7.70;99.90
16995;DHT22;8614;48.522;9.206;2024-03-06T10:55:37;7.70;99.90
16995;DHT22;8614;48.522;9.206;2024-03-06T10:58:05;7.70;99.90
16995;DHT22;8614;48.522;9.206;2024-03-06T11:00:35;7.60;99.90
16995;DHT22;8614;48.522;9.206;2024-03-06T11:03:05;7.60;99.90
16995;DHT22;8614;48.522;9.206;2024-03-06T11:05:35;7.60;99.90
16995;DHT22;8614;48.522;9.206;2024-03-06T11:08:03;7.50;99.90
16995;DHT22;8614;48.522;9.206;2024-03-06T11:10:32;7.50;99.90
16995;DHT22;8614;48.522;9.206;2024-03-06T11:13:00;7.50;99.90
16995;DHT22;8614;48.522;9.206;2024-03-06T11:15:27;7.50;99.90
16995;DHT22;8614;48.522;9.206;2024-03-06T11:17:54;7.50;99.90
16995;DHT22;8614;48.522;9.206;2024-03-06T11:20:21;7.50;99.90
16995;DHT22;8614;48.522;9.206;2024-03-06T11:23:02;7.50;99.90
16995;DHT22;8614;48.522;9.206;2024-03-06T11:25:57;7.50;99.90
16995;DHT22;8614;48.522;9.206;2024-03-06T11:28:27;7.50;99.90
16995;DHT22;8614;48.522;9.206;2024-03-06T11:30:56;7.50;99.90
16995;DHT22;8614;48.522;9.206;2024-03-06T11:33:27;7.60;99.90
16995;DHT22;8614;48.522;9.206;2024-03-06T11:36:15;7.60;99.90
16995;DHT22;8614;48.522;9.206;2024-03-06T11:38:46;7.60;99.90
16995;DHT22;8614;48.522;9.206;2024-03-06T11:41:14;7.60;99.90
16995;DHT22;8614;48.522;9.206;2024-03-06T11:43:44;7.60;99.90
16995;DHT22;8614;48.522;9.206;2024-03-06T11:46:12;7.60;99.90
16995;DHT22;8614;48.522;9.206;2024-03-06T11:48:39;7.60;99.90
16995;DHT22;8614;48.522;9.206;2024-03-06T11:51:06;7.50;99.90
16995;DHT22;8614;48.522;9.206;2024-03-06T11:53:33;7.50;99.90
16995;DHT22;8614;48.522;9.206;2024-03-06T11:56:01;7.50;99.90
16995;DHT22;8614;48.522;9.206;2024-03-06T11:58:29;7.50;99.90
16995;DHT22;8614;48.522;9.206;2024-03-06T12:00:56;7.40;99.90
16995;DHT22;8614;48.522;9.206;2024-03-06T12:03:23;7.40;99.90
16995;DHT22;8614;48.522;9.206;2024-03-06T12:05:51;7.40;99.90
16995;DHT22;8614;48.522;9.206;2024-03-06T12:08:18;7.50;99.90
16995;DHT22;8614;48.522;9.206;2024-03-06T12:10:46;7.50;99.90
16995;DHT22;8614;48.522;9.206;2024-03-06T12:13:13;7.50;99.90
16995;DHT22;8614;48.522;9.206;2024-03-06T12:15:43;7.60;99.90
16995;DHT22;8614;48.522;9.206;2024-03-06T12:18:11;7.60;99.90
16995;DHT22;8614;48.522;9.206;2024-03-06T12:20:41;7.60;99.90
16995;DHT22;8614;48.522;9.206;2024-03-06T12:23:19;7.60;99.90
16995;DHT22;8614;48.522;9.206;2024-03-06T12:25:46;7.60;99.90
16995;DHT22;8614;48.522;9.206;2024-03-06T12:28:13;7.60;99.90
16995;DHT22;8614;48.522;9.206;2024-03-06T12:30:42;7.60;99.90
16995;DHT22;8614;48.522;9.206;2024-03-06T12:33:10;7.60;99.90
16995;DHT22;8614;48.522;9.206;2024-03-06T12:35:40;7.70;99.90
16995;DHT22;8614;48.522;9.206;2024-03-06T12:38:13;7.60;99.90
16995;DHT22;8614;48.522;9.206;2024-03-06T12:40:40;7.70;99.90
16995;DHT22;8614;48.522;9.206;2024-03-06T12:43:07;7.70;99.90
16995;DHT22;8614;48.522;9.206;2024-03-06T12:45:35;7.70;99.90
16995;DHT22;8614;48.522;9.206;2024-03-06T12:48:04;7.80;99.90
16995;DHT22;8614;48.522;9.206;2024-03-06T12:50:32;7.80;99.90
16995;DHT22;8614;48.522;9.206;2024-03-06T12:52:58;7.90;99.90
16995;DHT22;8614;48.522;9.206;2024-03-06T12:55:25;7.90;99.90
16995;DHT22;8614;48.522;9.206;2024-03-06T12:57:53;7.80;99.90
16995;DHT22;8614;48.522;9.206;2024-03-06T13:00:20;7.80;99.90
16995;DHT22;8614;48.522;9.206;2024-03-06T13:02:47;7.80;99.90
16995;DHT22;8614;48.522;9.206;2024-03-06T13:05:15;7.90;99.90
16995;DHT22;8614;48.522;9.206;2024-03-06T13:07:42;7.90;99.90
16995;DHT22;8614;48.522;9.206;2024-03-06T13:10:10;8.00;99.90
16995;DHT22;8614;48.522;9.206;2024-03-06T13:12:37;8.00;99.90
16995;DHT22;8614;48.522;9.206;2024-03-06T13:15:05;8.10;99.90
16995;DHT22;8614;48.522;9.206;2024-03-06T13:17:33;8.10;99.90
16995;DHT22;8614;48.522;9.206;2024-03-06T13:19:59;8.10;99.90
16995;DHT22;8614;48.522;9.206;2024-03-06T13:22:28;8.10;99.90
16995;DHT22;8614;48.522;9.206;2024-03-06T13:24:54;8.10;99.90
16995;DHT22;8614;48.522;9.206;2024-03-06T13:27:22;8.00;99.90
16995;DHT22;8614;48.522;9.206;2024-03-06T13:29:49;8.00;99.90
16995;DHT22;8614;48.522;9.206;2024-03-06T13:32:16;7.90;99.90
16995;DHT22;8614;48.522;9.206;2024-03-06T13:34:43;8.00;99.90
16995;DHT22;8614;48.522;9.206;2024-03-06T13:37:10;8.00;99.90
16995;DHT22;8614;48.522;9.206;2024-03-06T13:39:38;8.00;99.90
16995;DHT22;8614;48.522;9.206;2024-03-06T13:42:05;8.00;99.90
16995;DHT22;8614;48.522;9.206;2024-03-06T13:44:33;8.00;99.90
16995;DHT22;8614;48.522;9.206;2024-03-06T13:47:00;8.00;99.90
16995;DHT22;8614;48.522;9.206;2024-03-06T13:49:38;8.00;99.90
16995;DHT22;8614;48.522;9.206;2024-03-06T13:52:05;8.00;99.90
16995;DHT22;8614;48.522;9.206;2024-03-06T13:54:34;8.00;99.90
16995;DHT22;8614;48.522;9.206;2024-03-06T13:57:02;7.90;99.90
16995;DHT22;8614;48.522;9.206;2024-03-06T13:59:30;7.90;99.90
16995;DHT22;8614;48.522;9.206;2024-03-06T14:01:58;7.90;99.90
16995;DHT22;8614;48.522;9.206;2024-03-06T14:04:25;7.80;99.90
16995;DHT22;8614;48.522;9.206;2024-03-06T14:06:53;7.80;99.90
16995;DHT22;8614;48.522;9.206;2024-03-06T14:09:20;7.80;99.90
16995;DHT22;8614;48.522;9.206;2024-03-06T14:11:49;7.80;99.90
16995;DHT22;8614;48.522;9.206;2024-03-06T14:14:17;7.80;99.90
16995;DHT22;8614;48.522;9.206;2024-03-06T14:16:44;7.80;99.90
16995;DHT22;8614;48.522;9.206;2024-03-06T14:19:11;7.80;99.90
16995;DHT22;8614;48.522;9.206;2024-03-06T14:21:39;7.80;99.90
16995;DHT22;8614;48.522;9.206;2024-03-06T14:24:06;7.70;99.90
16995;DHT22;8614;48.522;9.206;2024-03-06T14:26:33;7.80;99.90
16995;DHT22;8614;48.522;9.206;2024-03-06T14:29:00;7.70;99.90
16995;DHT22;8614;48.522;9.206;2024-03-06T14:31:29;7.70;99.90
16995;DHT22;8614;48.522;9.206;2024-03-06T14:33:56;7.60;99.90
16995;DHT22;8614;48.522;9.206;2024-03-06T14:36:23;7.60;99.90
16995;DHT22;8614;48.522;9.206;2024-03-06T14:38:50;7.70;99.90
16995;DHT22;8614;48.522;9.206;2024-03-06T14:41:18;7.60;99.90
16995;DHT22;8614;48.522;9.206;2024-03-06T14:43:45;7.60;99.90
16995;DHT22;8614;48.522;9.206;2024-03-06T14:46:12;7.60;99.90
16995;DHT22;8614;48.522;9.206;2024-03-06T14:48:40;7.60;99.90
16995;DHT22;8614;48.522;9.206;2024-03-06T14:51:07;7.60;99.90
16995;DHT22;8614;48.522;9.206;2024-03-06T14:53:34;7.60;99.90
16995;DHT22;8614;48.522;9.206;2024-03-06T14:56:01;7.60;99.90
16995;DHT22;8614;48.522;9.206;2024-03-06T14:58:28;7.50;99.90
16995;DHT22;8614;48.522;9.206;2024-03-06T15:00:55;7.50;99.90
16995;DHT22;8614;48.522;9.206;2024-03-06T15:03:22;7.50;99.90
16995;DHT22;8614;48.522;9.206;2024-03-06T15:05:50;7.50;99.90
16995;DHT22;8614;48.522;9.206;2024-03-06T15:08:18;7.50;99.90
16995;DHT22;8614;48.522;9.206;2024-03-06T15:10:44;7.50;99.90
16995;DHT22;8614;48.522;9.206;2024-03-06T15:13:11;7.60;99.90
16995;DHT22;8614;48.522;9.206;2024-03-06T15:15:41;7.50;99.90
16995;DHT22;8614;48.522;9.206;2024-03-06T15:18:08;7.50;99.90
16995;DHT22;8614;48.522;9.206;2024-03-06T15:20:35;7.50;99.90
16995;DHT22;8614;48.522;9.206;2024-03-06T15:23:03;7.50;99.90
16995;DHT22;8614;48.522;9.206;2024-03-06T15:25:30;7.50;99.90
16995;DHT22;8614;48.522;9.206;2024-03-06T15:27:57;7.50;99.90
16995;DHT22;8614;48.522;9.206;2024-03-06T15:30:27;7.50;99.90
16995;DHT22;8614;48.522;9.206;2024-03-06T15:32:56;7.40;99.90
16995;DHT22;8614;48.522;9.206;2024-03-06T15:35:26;7.50;99.90
16995;DHT22;8614;48.522;9.206;2024-03-06T15:37:53;7.50;99.90
16995;DHT22;8614;48.522;9.206;2024-03-06T15:40:22;7.50;99.90
16995;DHT22;8614;48.522;9.206;2024-03-06T15:42:48;7.50;99.90
16995;DHT22;8614;48.522;9.206;2024-03-06T15:45:15;7.50;99.90
16995;DHT22;8614;48.522;9.206;2024-03-06T15:47:42;7.50;99.90
16995;DHT22;8614;48.522;9.206;2024-03-06T15:50:11;7.50;99.90
16995;DHT22;8614;48.522;9.206;2024-03-06T15:52:38;7.50;99.90
16995;DHT22;8614;48.522;9.206;2024-03-06T15:55:06;7.50;99.90
16995;DHT22;8614;48.522;9.206;2024-03-06T15:57:35;7.50;99.90
16995;DHT22;8614;48.522;9.206;2024-03-06T16:00:03;7.50;99.90
16995;DHT22;8614;48.522;9.206;2024-03-06T16:02:34;7.50;99.90
16995;DHT22;8614;48.522;9.206;2024-03-06T16:05:01;7.50;99.90